Airfield :







YOU CAN JOIN US ON...

 
LOGIN :

Register | Disclaimer

   EN    FR    IT 

 









Legend :    VFR   Marginal VFR   IFR   Intensive IFR   Very Intensive IFR
Visi :
Ceiling :
>= 8 km
>= 3000ft
5 to 8 km
1000 to 3000 ft
1500m to 5 km
500 to 1000 ft
800 to 1500m
200 to 500 ft
< 800m
< 200 ft
Symbols :   Thunderstorms  Fog  Heavy snow  Heavy precipitations  Wind > 20 kt






- Airport Elevation : 40 ft
- IATA code : YRF


CYCA - Cartwright

CURRENT METAR :
  • 152300Z AUTO 17006KT 9SM -RA SCT035 BKN060 OVC100 10/06 A2987 RMK PRESFR SLP116

EXPIRED METARs :
  • 152259Z AUTO 17006KT 9SM -RA BKN035 BKN060 OVC100 10/06 A2987 RMK PRESFR SLP116
  • 152200Z AUTO 21006KT 9SM OVC039 10/06 A2989 RMK SLP123
  • 152117Z AUTO 23006KT 200V280 9SM -RA SCT065 OVC084 09/06 A2989 RMK SLP125
  • 152033Z AUTO 20004KT 9SM BKN060 OVC080 09/06 A2990 RMK SLP128

TAF AMD TAF CYCA
Valid from the 15 at 22:00 until the 16 at 08:00 UTC


152246Z 1522/1608 19006KT P6SM FEW020 OVC040
TEMPO 1522/1524 5SM -RA BR BKN020 OVC040
FM160000 17006KT P6SM -RA OVC015
TEMPO 1600/1608 2SM -RA BR OVC008 RMK FCST BASED ON AUTO OBS. NXT FCST BY 160200Z



MET'MAP, your aeronautical weather chart ! - Copyright ORBIFLY December 2007 - Disclaimer

ORBIFLY MET'MAP TEAM :

Programming & Development : Alexandra Zaïnal
Concept & Development : Baudouin d'Aumeries
Co-Development & Prog : Marc-Olivier Méhu
Technical & hardware support : Manuel Goepfert

Contact : metmap@orbifly.com




SOURCES & CREDITS :

   NOAA